Time;durP1;ratioP1;P1;durP2;ratioP2;P2;SDS_P1;SDS_P2;PMS_P1;PMS_P2;Temp;Humidity;BMP_temperature;BMP_pressure;BME280_temperature;BME280_humidity;BME280_pressure;Samples;Min_cycle;Max_cycle;Signal;HPM_P1;HPM_P2
2023/12/22 00:00:19;;;;;;;2.60;0.70;;;;;;;;;;2082112;28;20018;-74
2023/12/22 00:01:37;;;;;;;3.05;0.70;;;;;;;;;;2079843;28;20379;-74
2023/12/22 00:02:56;;;;;;;5.00;0.85;;;;;;;;;;2080845;28;20038;-74
2023/12/22 00:04:15;;;;;;;2.13;0.75;;;;;;;;;;2081830;28;20417;-74
2023/12/22 00:05:34;;;;;;;2.38;0.70;;;;;;;;;;2076240;28;20480;-74
2023/12/22 00:06:54;;;;;;;0.73;0.65;;;;;;;;;;2077330;28;20022;-74
2023/12/22 00:08:13;;;;;;;3.35;2.33;;;;;;;;;;2074174;28;20025;-75
2023/12/22 00:09:32;;;;;;;3.15;1.15;;;;;;;;;;2078293;28;20382;-74
2023/12/22 00:10:51;;;;;;;3.00;1.70;;;;;;;;;;2080875;28;20033;-74
2023/12/22 00:12:10;;;;;;;3.47;2.03;;;;;;;;;;2081775;28;20112;-75
2023/12/22 00:13:29;;;;;;;1.27;0.68;;;;;;;;;;2080922;28;20120;-74
2023/12/22 00:14:48;;;;;;;5.88;1.48;;;;;;;;;;2080307;28;20049;-74
2023/12/22 00:16:07;;;;;;;2.20;0.80;;;;;;;;;;2080428;28;20113;-75
2023/12/22 00:17:26;;;;;;;1.10;0.77;;;;;;;;;;2081479;28;21982;-75
2023/12/22 00:18:45;;;;;;;0.70;0.52;;;;;;;;;;2074657;28;20112;-75
2023/12/22 00:20:04;;;;;;;1.08;1.02;;;;;;;;;;2075299;28;20022;-75
2023/12/22 00:21:23;;;;;;;2.20;1.10;;;;;;;;;;2077012;28;20448;-74
2023/12/22 00:22:42;;;;;;;1.02;0.60;;;;;;;;;;2075847;28;20062;-73
2023/12/22 00:24:01;;;;;;;1.10;0.70;;;;;;;;;;2079047;28;20033;-75
2023/12/22 00:25:20;;;;;;;1.15;0.45;;;;;;;;;;2081123;28;20415;-74
2023/12/22 00:26:39;;;;;;;1.75;0.50;;;;;;;;;;2081853;28;20034;-74
2023/12/22 00:27:58;;;;;;;1.20;0.65;;;;;;;;;;2083898;28;20037;-74
2023/12/22 00:29:17;;;;;;;1.75;0.80;;;;;;;;;;2079590;28;20053;-74
2023/12/22 00:30:36;;;;;;;4.80;1.00;;;;;;;;;;2074778;28;20097;-74
2023/12/22 00:31:55;;;;;;;1.95;0.60;;;;;;;;;;2078523;28;20116;-74
2023/12/22 00:33:14;;;;;;;1.55;0.50;;;;;;;;;;2080942;28;20034;-74
2023/12/22 00:34:33;;;;;;;3.03;0.68;;;;;;;;;;2080259;28;20038;-74
2023/12/22 00:35:52;;;;;;;1.40;0.35;;;;;;;;;;2080338;28;20391;-73
2023/12/22 00:37:12;;;;;;;4.00;0.60;;;;;;;;;;2082118;28;20029;-74
2023/12/22 00:38:32;;;;;;;1.27;0.60;;;;;;;;;;2082085;28;20021;-74
2023/12/22 00:39:50;;;;;;;1.55;1.40;;;;;;;;;;2074000;28;20026;-74
2023/12/22 00:41:10;;;;;;;1.38;0.57;;;;;;;;;;2078822;28;20053;-74
2023/12/22 00:42:29;;;;;;;2.30;0.70;;;;;;;;;;2073996;28;20030;-74
2023/12/22 00:43:48;;;;;;;2.25;0.50;;;;;;;;;;2079062;28;20034;-75
2023/12/22 00:45:07;;;;;;;2.05;0.85;;;;;;;;;;2079530;28;20026;-74
2023/12/22 00:46:27;;;;;;;1.30;0.52;;;;;;;;;;2081104;28;20025;-75
2023/12/22 00:47:45;;;;;;;0.82;0.50;;;;;;;;;;2080811;28;20033;-73
2023/12/22 00:49:04;;;;;;;1.17;0.60;;;;;;;;;;2080306;28;20038;-74
2023/12/22 00:50:23;;;;;;;2.80;0.60;;;;;;;;;;2080699;28;20033;-74
2023/12/22 00:51:42;;;;;;;0.88;0.40;;;;;;;;;;2080111;28;20033;-74
2023/12/22 00:53:01;;;;;;;2.45;0.70;;;;;;;;;;2073114;28;20034;-75
2023/12/22 00:54:20;;;;;;;0.38;0.38;;;;;;;;;;2079951;28;20021;-75
2023/12/22 00:55:39;;;;;;;1.17;0.95;;;;;;;;;;2078547;28;20022;-74
2023/12/22 00:56:58;;;;;;;1.45;0.50;;;;;;;;;;2079210;28;20379;-74
2023/12/22 00:58:17;;;;;;;2.42;0.60;;;;;;;;;;2078808;28;20499;-74
2023/12/22 00:59:36;;;;;;;1.55;0.47;;;;;;;;;;2074434;28;20026;-74
2023/12/22 01:00:55;;;;;;;1.90;0.50;;;;;;;;;;2077662;28;20030;-75
2023/12/22 01:02:15;;;;;;;1.48;0.60;;;;;;;;;;2080658;28;20026;-74
2023/12/22 01:03:34;;;;;;;0.60;0.40;;;;;;;;;;2080763;28;20406;-74
2023/12/22 01:04:53;;;;;;;1.45;0.60;;;;;;;;;;2080403;28;20490;-74
2023/12/22 01:06:12;;;;;;;1.85;0.75;;;;;;;;;;2074514;28;20030;-74
2023/12/22 01:07:31;;;;;;;2.83;0.80;;;;;;;;;;2078576;28;20442;-75
2023/12/22 01:08:50;;;;;;;0.82;0.77;;;;;;;;;;2080510;28;20038;-75
2023/12/22 01:10:09;;;;;;;2.83;0.70;;;;;;;;;;2075473;28;20025;-74
2023/12/22 01:11:27;;;;;;;1.20;0.50;;;;;;;;;;2078108;28;20055;-73
2023/12/22 01:12:46;;;;;;;2.95;0.73;;;;;;;;;;2081451;28;20101;-74
2023/12/22 01:14:06;;;;;;;2.13;0.88;;;;;;;;;;2081582;28;20045;-73
2023/12/22 01:15:25;;;;;;;1.08;0.52;;;;;;;;;;2079625;28;20033;-74
2023/12/22 01:16:44;;;;;;;2.42;0.57;;;;;;;;;;2078317;28;20085;-74
2023/12/22 01:18:03;;;;;;;0.77;0.50;;;;;;;;;;2075418;28;20037;-74
2023/12/22 01:19:22;;;;;;;1.92;0.60;;;;;;;;;;2072415;28;20416;-74
2023/12/22 01:20:41;;;;;;;1.13;0.50;;;;;;;;;;2078870;28;20112;-74
2023/12/22 01:22:00;;;;;;;1.00;0.70;;;;;;;;;;2075995;28;20037;-74
2023/12/22 01:23:19;;;;;;;0.85;0.52;;;;;;;;;;2074185;28;20041;-74
2023/12/22 01:24:40;;;;;;;3.20;1.00;;;;;;;;;;2077553;28;20053;-74
2023/12/22 01:26:00;;;;;;;0.60;0.60;;;;;;;;;;2080685;28;20491;-74
2023/12/22 01:27:19;;;;;;;1.08;0.50;;;;;;;;;;2080268;28;20116;-74
2023/12/22 01:28:38;;;;;;;0.43;0.40;;;;;;;;;;2075738;28;20053;-74
2023/12/22 01:29:57;;;;;;;2.00;0.63;;;;;;;;;;2075940;28;20025;-74
2023/12/22 01:31:16;;;;;;;0.73;0.47;;;;;;;;;;2079669;28;20029;-74
2023/12/22 01:32:36;;;;;;;0.93;0.50;;;;;;;;;;2078887;28;20033;-74
2023/12/22 01:33:55;;;;;;;0.75;0.40;;;;;;;;;;2081442;28;20096;-75
2023/12/22 01:35:14;;;;;;;1.23;0.30;;;;;;;;;;2080898;28;20041;-74
2023/12/22 01:36:34;;;;;;;0.82;0.40;;;;;;;;;;2074827;28;20030;-74
2023/12/22 01:37:54;;;;;;;2.15;0.70;;;;;;;;;;2078090;28;20108;-74
2023/12/22 01:39:13;;;;;;;2.20;0.57;;;;;;;;;;2080416;28;20101;-74
2023/12/22 01:40:32;;;;;;;1.05;0.68;;;;;;;;;;2075091;28;20038;-75
2023/12/22 01:41:51;;;;;;;0.55;0.40;;;;;;;;;;2079253;28;20053;-74
2023/12/22 01:43:10;;;;;;;1.60;0.40;;;;;;;;;;2073895;28;20508;-74
2023/12/22 01:44:29;;;;;;;2.05;0.60;;;;;;;;;;2077029;28;20113;-75
2023/12/22 01:45:49;;;;;;;1.00;0.60;;;;;;;;;;2080296;28;20108;-74
2023/12/22 01:47:07;;;;;;;0.77;0.40;;;;;;;;;;2079809;28;20030;-74
2023/12/22 01:48:27;;;;;;;1.90;0.45;;;;;;;;;;2078672;28;20018;-75
2023/12/22 01:49:47;;;;;;;2.03;0.60;;;;;;;;;;2080262;28;20045;-74
2023/12/22 01:51:06;;;;;;;2.63;0.40;;;;;;;;;;2079471;28;20375;-74
2023/12/22 01:52:26;;;;;;;2.30;0.40;;;;;;;;;;2075249;28;20030;-74
2023/12/22 01:53:45;;;;;;;0.60;0.30;;;;;;;;;;2079392;28;20021;-75
2023/12/22 01:55:06;;;;;;;1.13;0.55;;;;;;;;;;2079166;28;20475;-75
2023/12/22 01:56:26;;;;;;;1.27;0.50;;;;;;;;;;2078167;28;20033;-74
2023/12/22 01:57:46;;;;;;;0.85;0.70;;;;;;;;;;2079460;28;20479;-75
2023/12/22 01:59:05;;;;;;;1.45;0.50;;;;;;;;;;2077182;28;20038;-75
2023/12/22 02:00:23;;;;;;;2.03;0.60;;;;;;;;;;2075512;28;20418;-74
2023/12/22 02:01:45;;;;;;;1.75;0.32;;;;;;;;;;2079590;28;20029;-74
2023/12/22 02:03:04;;;;;;;0.88;0.40;;;;;;;;;;2080829;28;20399;-74
2023/12/22 02:04:24;;;;;;;0.85;0.40;;;;;;;;;;2079621;28;20022;-74
2023/12/22 02:05:44;;;;;;;1.35;0.82;;;;;;;;;;2075030;28;20022;-74
2023/12/22 02:07:03;;;;;;;2.30;0.60;;;;;;;;;;2077689;28;20116;-74
2023/12/22 02:08:24;;;;;;;0.85;0.60;;;;;;;;;;2080675;28;20030;-74
2023/12/22 02:09:43;;;;;;;0.75;0.47;;;;;;;;;;2069458;28;20072;-74
2023/12/22 02:11:01;;;;;;;1.52;0.60;;;;;;;;;;2075283;28;20026;-74
2023/12/22 02:12:20;;;;;;;2.60;0.70;;;;;;;;;;2080021;28;20037;-74
2023/12/22 02:13:40;;;;;;;1.20;0.68;;;;;;;;;;2079760;28;20108;-74
2023/12/22 02:14:59;;;;;;;1.73;0.50;;;;;;;;;;2080765;28;20030;-74
2023/12/22 02:16:26;;;;;;;0.93;0.50;;;;;;;;;;2079821;28;20025;-74
2023/12/22 02:17:50;;;;;;;1.95;0.73;;;;;;;;;;2077671;28;20028;-74
2023/12/22 02:19:21;;;;;;;1.65;0.60;;;;;;;;;;2078541;28;20026;-74
2023/12/22 02:20:40;;;;;;;2.90;0.50;;;;;;;;;;2079891;28;20060;-74
2023/12/22 02:22:00;;;;;;;1.27;0.50;;;;;;;;;;2075082;28;20034;-74
2023/12/22 02:23:19;;;;;;;1.30;0.50;;;;;;;;;;2079408;28;20029;-74
2023/12/22 02:24:38;;;;;;;1.00;0.30;;;;;;;;;;2077764;28;20033;-74
2023/12/22 02:26:03;;;;;;;2.05;0.50;;;;;;;;;;2080292;28;20030;-74
2023/12/22 02:27:28;;;;;;;1.38;0.50;;;;;;;;;;2079882;28;21084;-75
2023/12/22 02:28:48;;;;;;;1.38;0.35;;;;;;;;;;2074208;28;20049;-74
2023/12/22 02:30:09;;;;;;;1.05;0.43;;;;;;;;;;2070400;28;20422;-74
2023/12/22 02:31:44;;;;;;;1.17;0.40;;;;;;;;;;2073063;28;20030;-74
2023/12/22 02:33:04;;;;;;;0.82;0.45;;;;;;;;;;2077825;28;20029;-75
2023/12/22 02:34:24;;;;;;;0.38;0.30;;;;;;;;;;2081342;28;20025;-76
2023/12/22 02:35:44;;;;;;;1.25;0.52;;;;;;;;;;2080876;28;20029;-75
2023/12/22 02:37:06;;;;;;;2.05;0.73;;;;;;;;;;2089527;28;20022;-76
2023/12/22 02:38:25;;;;;;;2.03;0.28;;;;;;;;;;2089962;28;20081;-75
2023/12/22 02:39:44;;;;;;;0.30;0.30;;;;;;;;;;2087661;28;20025;-76
2023/12/22 02:41:04;;;;;;;2.33;0.50;;;;;;;;;;2090123;28;20037;-75
2023/12/22 02:42:29;;;;;;;2.42;0.35;;;;;;;;;;2080947;28;20116;-74
2023/12/22 02:43:49;;;;;;;1.13;0.60;;;;;;;;;;2081591;28;20030;-75
2023/12/22 02:45:13;;;;;;;0.90;0.40;;;;;;;;;;2080606;28;20037;-75
2023/12/22 02:46:32;;;;;;;1.38;0.40;;;;;;;;;;2069574;28;20031;-74
2023/12/22 02:47:51;;;;;;;1.85;0.40;;;;;;;;;;2084933;28;20014;-76
2023/12/22 02:49:13;;;;;;;1.27;0.70;;;;;;;;;;2089833;28;20026;-75
2023/12/22 02:50:32;;;;;;;1.23;0.55;;;;;;;;;;2089840;28;20005;-76
2023/12/22 02:51:51;;;;;;;3.20;1.88;;;;;;;;;;2084149;28;20033;-75
2023/12/22 02:53:10;;;;;;;0.80;0.70;;;;;;;;;;2080870;28;20025;-74
2023/12/22 02:54:31;;;;;;;2.15;0.50;;;;;;;;;;2080951;28;20041;-75
2023/12/22 02:55:50;;;;;;;0.40;0.30;;;;;;;;;;2082240;28;20037;-75
2023/12/22 02:57:09;;;;;;;0.52;0.43;;;;;;;;;;2078642;28;20026;-74
2023/12/22 02:58:28;;;;;;;0.55;0.40;;;;;;;;;;2078399;28;20491;-76
2023/12/22 02:59:47;;;;;;;0.50;0.50;;;;;;;;;;2073212;28;20037;-74
2023/12/22 03:01:06;;;;;;;1.58;0.50;;;;;;;;;;2078210;28;20486;-73
2023/12/22 03:02:25;;;;;;;0.55;0.38;;;;;;;;;;2080162;28;20474;-75
2023/12/22 03:03:44;;;;;;;1.10;1.00;;;;;;;;;;2078765;28;20120;-74
2023/12/22 03:05:03;;;;;;;2.35;0.60;;;;;;;;;;2079826;28;20041;-74
2023/12/22 03:06:22;;;;;;;3.95;0.30;;;;;;;;;;2073098;28;20026;-75
2023/12/22 03:07:41;;;;;;;0.82;0.50;;;;;;;;;;2070195;28;20038;-74
2023/12/22 03:09:00;;;;;;;1.00;0.50;;;;;;;;;;2078586;28;20026;-74
2023/12/22 03:10:19;;;;;;;1.33;0.40;;;;;;;;;;2075182;28;20472;-74
2023/12/22 03:11:38;;;;;;;0.93;0.32;;;;;;;;;;2077557;28;20053;-74
2023/12/22 03:12:57;;;;;;;1.20;0.60;;;;;;;;;;2079098;28;20025;-74
2023/12/22 03:14:15;;;;;;;0.43;0.40;;;;;;;;;;2079247;28;20089;-75
2023/12/22 03:15:34;;;;;;;0.93;0.30;;;;;;;;;;2079940;28;20113;-76
2023/12/22 03:16:53;;;;;;;1.15;0.40;;;;;;;;;;2079341;28;20061;-75
2023/12/22 03:18:12;;;;;;;0.65;0.40;;;;;;;;;;2079731;28;20022;-74
2023/12/22 03:19:32;;;;;;;0.95;0.30;;;;;;;;;;2075900;28;20021;-75
2023/12/22 03:20:51;;;;;;;1.80;0.30;;;;;;;;;;2078837;28;21892;-76
2023/12/22 03:22:09;;;;;;;1.55;0.40;;;;;;;;;;2082370;28;20387;-74
2023/12/22 03:23:28;;;;;;;1.02;0.40;;;;;;;;;;2081861;28;20037;-73
2023/12/22 03:24:47;;;;;;;1.10;0.20;;;;;;;;;;2074133;28;20046;-74
2023/12/22 03:26:06;;;;;;;0.52;0.40;;;;;;;;;;2078224;28;20030;-73
2023/12/22 03:27:25;;;;;;;1.13;0.40;;;;;;;;;;2081831;28;20033;-73
2023/12/22 03:28:44;;;;;;;0.95;0.40;;;;;;;;;;2080749;28;20049;-73
2023/12/22 03:30:03;;;;;;;0.73;0.30;;;;;;;;;;2081716;28;20131;-74
2023/12/22 03:31:22;;;;;;;1.42;0.60;;;;;;;;;;2076260;28;20065;-73
2023/12/22 03:32:42;;;;;;;2.15;0.50;;;;;;;;;;2076876;28;20498;-74
2023/12/22 03:34:01;;;;;;;1.92;0.60;;;;;;;;;;2074598;28;20029;-75
2023/12/22 03:35:20;;;;;;;1.25;0.60;;;;;;;;;;2079067;28;20038;-74
2023/12/22 03:36:39;;;;;;;0.60;0.22;;;;;;;;;;2081416;28;20144;-74
2023/12/22 03:37:58;;;;;;;0.68;0.20;;;;;;;;;;2081075;28;20936;-74
2023/12/22 03:39:17;;;;;;;0.93;0.50;;;;;;;;;;2080243;28;20483;-74
2023/12/22 03:40:36;;;;;;;0.40;0.38;;;;;;;;;;2080599;28;20021;-74
2023/12/22 03:41:55;;;;;;;2.08;0.93;;;;;;;;;;2077181;28;20974;-74
2023/12/22 03:43:13;;;;;;;2.13;0.70;;;;;;;;;;2079899;28;20029;-74
2023/12/22 03:44:32;;;;;;;3.17;1.60;;;;;;;;;;2074445;28;20034;-75
2023/12/22 03:45:51;;;;;;;2.92;1.70;;;;;;;;;;2080299;28;20060;-74
2023/12/22 03:47:10;;;;;;;0.98;0.70;;;;;;;;;;2076600;28;20026;-74
2023/12/22 03:48:29;;;;;;;0.70;0.50;;;;;;;;;;2078882;28;20033;-74
2023/12/22 03:49:48;;;;;;;2.25;0.60;;;;;;;;;;2074275;28;20022;-75
2023/12/22 03:51:06;;;;;;;3.72;2.47;;;;;;;;;;2077437;28;20029;-74
2023/12/22 03:52:26;;;;;;;0.77;0.40;;;;;;;;;;2081361;28;20386;-74
2023/12/22 03:53:45;;;;;;;0.52;0.52;;;;;;;;;;2081380;28;20021;-75
2023/12/22 03:55:04;;;;;;;0.55;0.45;;;;;;;;;;2075578;28;20022;-74
2023/12/22 03:56:23;;;;;;;0.90;0.70;;;;;;;;;;2080176;28;20101;-74
2023/12/22 03:57:42;;;;;;;1.02;0.80;;;;;;;;;;2081863;28;20037;-75
2023/12/22 03:59:01;;;;;;;1.30;0.93;;;;;;;;;;2080744;28;20034;-73
2023/12/22 04:00:20;;;;;;;1.27;1.17;;;;;;;;;;2074418;28;20026;-74
2023/12/22 04:01:39;;;;;;;1.05;0.38;;;;;;;;;;2072523;28;20038;-74
2023/12/22 04:02:58;;;;;;;0.47;0.47;;;;;;;;;;2079865;28;20093;-74
2023/12/22 04:04:17;;;;;;;2.75;0.40;;;;;;;;;;2080904;28;20112;-74
2023/12/22 04:05:36;;;;;;;1.13;0.38;;;;;;;;;;2080901;28;20038;-74
2023/12/22 04:06:55;;;;;;;0.30;0.30;;;;;;;;;;2079794;28;20026;-75
2023/12/22 04:08:13;;;;;;;0.28;0.20;;;;;;;;;;2081578;28;20459;-74
2023/12/22 04:09:33;;;;;;;0.25;0.20;;;;;;;;;;2081053;28;20026;-74
2023/12/22 04:10:52;;;;;;;0.63;0.50;;;;;;;;;;2081352;28;20479;-74
2023/12/22 04:12:11;;;;;;;1.55;0.80;;;;;;;;;;2081731;28;20037;-74
2023/12/22 04:13:29;;;;;;;0.85;0.70;;;;;;;;;;2081709;28;20025;-74
2023/12/22 04:14:48;;;;;;;0.40;0.40;;;;;;;;;;2076049;28;20038;-74
2023/12/22 04:16:07;;;;;;;0.22;0.22;;;;;;;;;;2072906;28;20029;-74
2023/12/22 04:17:26;;;;;;;0.50;0.40;;;;;;;;;;2077132;28;20026;-75
2023/12/22 04:18:45;;;;;;;0.40;0.30;;;;;;;;;;2080728;28;20041;-74
2023/12/22 04:20:05;;;;;;;1.00;0.20;;;;;;;;;;2079900;28;20029;-75
2023/12/22 04:21:24;;;;;;;0.60;0.60;;;;;;;;;;2081303;28;20100;-74
2023/12/22 04:22:43;;;;;;;0.30;0.30;;;;;;;;;;2080985;28;20406;-74
2023/12/22 04:24:02;;;;;;;1.98;1.35;;;;;;;;;;2081111;28;20497;-74
2023/12/22 04:25:23;;;;;;;1.65;0.40;;;;;;;;;;2073983;28;20037;-74
2023/12/22 04:26:41;;;;;;;0.45;0.25;;;;;;;;;;2078417;28;20029;-74
2023/12/22 04:28:00;;;;;;;0.40;0.32;;;;;;;;;;2081159;28;20045;-75
2023/12/22 04:29:19;;;;;;;0.50;0.40;;;;;;;;;;2081549;28;20053;-73
2023/12/22 04:30:38;;;;;;;2.53;1.38;;;;;;;;;;2079214;28;20037;-74
2023/12/22 04:31:57;;;;;;;0.30;0.30;;;;;;;;;;2080707;28;20041;-74
2023/12/22 04:33:16;;;;;;;0.55;0.45;;;;;;;;;;2075834;28;20104;-74
2023/12/22 04:34:35;;;;;;;0.22;0.22;;;;;;;;;;2077807;28;20029;-74
2023/12/22 04:35:53;;;;;;;2.65;1.95;;;;;;;;;;2080267;28;20034;-74
2023/12/22 04:37:12;;;;;;;1.63;0.73;;;;;;;;;;2081957;28;20022;-74
2023/12/22 04:38:31;;;;;;;1.27;1.17;;;;;;;;;;2081485;28;20034;-74
2023/12/22 04:39:50;;;;;;;1.52;1.02;;;;;;;;;;2080309;28;20490;-74
2023/12/22 04:41:09;;;;;;;1.25;0.38;;;;;;;;;;2075269;28;20026;-76
2023/12/22 04:42:28;;;;;;;0.20;0.20;;;;;;;;;;2074117;28;20034;-75
2023/12/22 04:43:47;;;;;;;1.50;0.60;;;;;;;;;;2079019;28;20482;-75
2023/12/22 04:45:07;;;;;;;0.75;0.35;;;;;;;;;;2075355;28;20042;-75
2023/12/22 04:46:26;;;;;;;0.30;0.30;;;;;;;;;;2077026;28;20051;-74
2023/12/22 04:47:45;;;;;;;0.47;0.30;;;;;;;;;;2081458;28;20029;-75
2023/12/22 04:49:04;;;;;;;0.38;0.38;;;;;;;;;;2081590;28;20030;-75
2023/12/22 04:50:23;;;;;;;1.13;0.90;;;;;;;;;;2081194;28;20025;-74
2023/12/22 04:51:42;;;;;;;0.90;0.80;;;;;;;;;;2080182;28;20025;-75
2023/12/22 04:53:01;;;;;;;0.65;0.40;;;;;;;;;;2075158;28;20498;-74
2023/12/22 04:54:19;;;;;;;0.30;0.20;;;;;;;;;;2078822;28;20029;-74
2023/12/22 04:55:38;;;;;;;0.40;0.40;;;;;;;;;;2080144;28;20025;-75
2023/12/22 04:56:57;;;;;;;0.10;0.10;;;;;;;;;;2079983;28;20025;-76
2023/12/22 04:58:16;;;;;;;0.50;0.30;;;;;;;;;;2081089;28;20876;-75
2023/12/22 04:59:35;;;;;;;0.40;0.30;;;;;;;;;;2081124;28;20025;-75
2023/12/22 05:00:54;;;;;;;0.65;0.20;;;;;;;;;;2080005;28;20494;-75
2023/12/22 05:02:14;;;;;;;0.20;0.20;;;;;;;;;;2078702;28;20029;-75
2023/12/22 05:03:33;;;;;;;0.43;0.30;;;;;;;;;;2081458;28;20034;-75
2023/12/22 05:04:52;;;;;;;0.38;0.30;;;;;;;;;;2079700;28;20482;-76
2023/12/22 05:06:10;;;;;;;0.40;0.40;;;;;;;;;;2081020;28;20029;-76
2023/12/22 05:07:30;;;;;;;1.60;1.20;;;;;;;;;;2080020;28;20026;-75
2023/12/22 05:08:49;;;;;;;3.00;1.33;;;;;;;;;;2075679;28;20038;-76
2023/12/22 05:10:08;;;;;;;2.63;2.40;;;;;;;;;;2071475;28;20021;-77
2023/12/22 05:11:27;;;;;;;1.10;1.00;;;;;;;;;;2078858;28;20498;-76
2023/12/22 05:12:46;;;;;;;1.75;0.40;;;;;;;;;;2074604;28;20484;-76
2023/12/22 05:14:05;;;;;;;0.32;0.30;;;;;;;;;;2077765;28;20057;-76
2023/12/22 05:15:24;;;;;;;0.45;0.32;;;;;;;;;;2081478;28;20105;-75
2023/12/22 05:16:43;;;;;;;0.38;0.30;;;;;;;;;;2081785;28;20018;-75
2023/12/22 05:18:02;;;;;;;1.75;0.30;;;;;;;;;;2074675;28;20022;-76
2023/12/22 05:19:21;;;;;;;1.08;0.45;;;;;;;;;;2078234;28;20037;-78
2023/12/22 05:20:40;;;;;;;1.30;0.38;;;;;;;;;;2072979;28;20022;-75
2023/12/22 05:21:59;;;;;;;0.52;0.50;;;;;;;;;;2079285;28;20518;-75
2023/12/22 05:23:18;;;;;;;0.45;0.38;;;;;;;;;;2080828;28;20069;-76
2023/12/22 05:24:38;;;;;;;0.50;0.40;;;;;;;;;;2080958;28;20022;-74
2023/12/22 05:25:57;;;;;;;0.30;0.30;;;;;;;;;;2075543;28;20033;-77
2023/12/22 05:27:16;;;;;;;1.85;0.60;;;;;;;;;;2073343;28;20021;-74
2023/12/22 05:28:35;;;;;;;3.72;2.13;;;;;;;;;;2076415;28;20049;-76
2023/12/22 05:29:54;;;;;;;5.03;2.78;;;;;;;;;;2080332;28;20458;-73
2023/12/22 05:31:13;;;;;;;13.20;6.15;;;;;;;;;;2080350;28;20026;-74
2023/12/22 05:32:32;;;;;;;4.82;1.95;;;;;;;;;;2074154;28;20017;-75
2023/12/22 05:33:50;;;;;;;2.08;0.73;;;;;;;;;;2079732;28;20060;-75
2023/12/22 05:35:10;;;;;;;0.85;0.52;;;;;;;;;;2081376;28;20021;-75
2023/12/22 05:36:29;;;;;;;0.55;0.40;;;;;;;;;;2073097;28;20017;-75
2023/12/22 05:37:48;;;;;;;0.50;0.40;;;;;;;;;;2079034;28;20025;-75
2023/12/22 05:39:09;;;;;;;3.13;0.90;;;;;;;;;;2079480;28;20647;-76
2023/12/22 05:40:28;;;;;;;0.90;0.60;;;;;;;;;;2079689;28;20029;-75
2023/12/22 05:41:48;;;;;;;1.35;0.55;;;;;;;;;;2080260;28;20487;-74
2023/12/22 05:43:07;;;;;;;0.55;0.38;;;;;;;;;;2080755;28;20108;-75
2023/12/22 05:44:29;;;;;;;0.95;0.52;;;;;;;;;;2074284;28;20026;-76
2023/12/22 05:45:48;;;;;;;1.10;0.90;;;;;;;;;;2079361;28;20018;-75
2023/12/22 05:47:07;;;;;;;1.33;0.82;;;;;;;;;;2078861;28;20022;-75
2023/12/22 05:48:27;;;;;;;1.30;0.50;;;;;;;;;;2081498;28;20026;-74
2023/12/22 05:49:46;;;;;;;1.25;0.60;;;;;;;;;;2075558;28;20025;-74
2023/12/22 05:51:09;;;;;;;0.80;0.63;;;;;;;;;;2077468;28;20026;-76
2023/12/22 05:52:29;;;;;;;0.95;0.70;;;;;;;;;;2078691;28;20539;-74
2023/12/22 05:53:47;;;;;;;3.33;0.90;;;;;;;;;;2073570;28;20038;-75
2023/12/22 05:55:08;;;;;;;1.73;0.80;;;;;;;;;;2076668;28;20013;-76
2023/12/22 05:56:27;;;;;;;1.35;0.68;;;;;;;;;;2074920;28;20109;-76
2023/12/22 05:57:46;;;;;;;1.05;0.95;;;;;;;;;;2077562;28;20029;-75
2023/12/22 05:59:05;;;;;;;2.00;0.98;;;;;;;;;;2073473;28;20387;-77
2023/12/22 06:00:26;;;;;;;2.03;0.45;;;;;;;;;;2068857;28;20113;-74
2023/12/22 06:01:44;;;;;;;0.80;0.70;;;;;;;;;;2077073;28;20029;-75
2023/12/22 06:03:04;;;;;;;1.00;0.90;;;;;;;;;;2071009;28;20113;-76
2023/12/22 06:04:22;;;;;;;2.05;0.60;;;;;;;;;;2075310;28;20061;-75
2023/12/22 06:05:41;;;;;;;1.98;0.70;;;;;;;;;;2079626;28;20037;-75
2023/12/22 06:07:00;;;;;;;1.90;0.80;;;;;;;;;;2080229;28;20025;-76
2023/12/22 06:08:19;;;;;;;2.30;0.90;;;;;;;;;;2075414;28;20053;-76
2023/12/22 06:09:39;;;;;;;3.45;0.85;;;;;;;;;;2076232;28;20041;-76
2023/12/22 06:10:58;;;;;;;1.75;1.00;;;;;;;;;;2074076;28;20029;-75
2023/12/22 06:12:17;;;;;;;1.80;1.13;;;;;;;;;;2071196;28;20057;-75
2023/12/22 06:13:37;;;;;;;1.42;0.82;;;;;;;;;;2069328;28;20026;-77
2023/12/22 06:14:56;;;;;;;1.35;1.00;;;;;;;;;;2071010;28;20025;-75
2023/12/22 06:16:15;;;;;;;2.85;0.90;;;;;;;;;;2072873;28;20069;-75
2023/12/22 06:17:34;;;;;;;1.55;1.10;;;;;;;;;;2079614;28;20022;-74
2023/12/22 06:18:53;;;;;;;1.98;0.95;;;;;;;;;;2085438;28;20041;-78
2023/12/22 06:20:12;;;;;;;1.73;0.90;;;;;;;;;;2090244;28;20021;-78
2023/12/22 06:21:32;;;;;;;1.65;1.02;;;;;;;;;;2083385;28;20042;-78
2023/12/22 06:22:51;;;;;;;2.53;0.93;;;;;;;;;;2086850;28;20029;-79
2023/12/22 06:24:10;;;;;;;1.70;1.45;;;;;;;;;;2083503;28;20033;-76
2023/12/22 06:25:29;;;;;;;2.28;1.83;;;;;;;;;;2077178;28;20037;-76
2023/12/22 06:26:48;;;;;;;1.40;1.10;;;;;;;;;;2080040;28;20021;-76
2023/12/22 06:28:07;;;;;;;4.43;1.65;;;;;;;;;;2076846;28;20021;-76
2023/12/22 06:29:26;;;;;;;5.60;1.70;;;;;;;;;;2084204;28;20025;-76
2023/12/22 06:30:46;;;;;;;2.25;1.38;;;;;;;;;;2086927;28;20200;-78
2023/12/22 06:32:06;;;;;;;2.05;1.30;;;;;;;;;;2088891;28;20081;-76
2023/12/22 06:33:25;;;;;;;3.40;1.40;;;;;;;;;;2085168;28;20045;-77
2023/12/22 06:34:44;;;;;;;2.25;1.38;;;;;;;;;;2075502;28;20042;-76
2023/12/22 06:36:04;;;;;;;2.53;1.98;;;;;;;;;;2076688;28;20026;-76
2023/12/22 06:37:23;;;;;;;4.35;1.90;;;;;;;;;;2074143;28;20034;-76
2023/12/22 06:38:42;;;;;;;3.15;1.58;;;;;;;;;;2078747;28;20029;-76
2023/12/22 06:40:01;;;;;;;4.68;1.75;;;;;;;;;;2073457;28;20026;-76
2023/12/22 06:41:24;;;;;;;2.78;2.15;;;;;;;;;;2078996;28;20038;-76
2023/12/22 06:42:43;;;;;;;;;;;;;;;;;;2080237;28;20038;-79
2023/12/22 06:44:03;;;;;;;4.35;2.00;;;;;;;;;;2074369;28;19910;-77
2023/12/22 06:45:22;;;;;;;2.92;1.83;;;;;;;;;;2069883;28;20026;-77
2023/12/22 06:46:40;;;;;;;7.70;2.38;;;;;;;;;;2071931;28;20030;-77
2023/12/22 06:47:59;;;;;;;3.45;1.98;;;;;;;;;;2071220;28;20038;-77
2023/12/22 06:49:18;;;;;;;3.63;2.00;;;;;;;;;;2065487;28;20022;-78
2023/12/22 06:50:39;;;;;;;1.77;1.60;;;;;;;;;;2075364;28;20017;-77
2023/12/22 06:51:58;;;;;;;2.92;1.67;;;;;;;;;;2074229;28;20495;-77
2023/12/22 06:53:17;;;;;;;1.30;1.15;;;;;;;;;;2072627;28;20121;-77
2023/12/22 06:54:36;;;;;;;3.45;1.90;;;;;;;;;;2079220;28;20466;-78
2023/12/22 06:55:55;;;;;;;2.17;1.50;;;;;;;;;;2070366;28;20046;-77
2023/12/22 06:57:14;;;;;;;2.90;1.42;;;;;;;;;;2076470;28;20393;-78
2023/12/22 06:58:33;;;;;;;4.38;1.88;;;;;;;;;;2073828;28;20593;-79
2023/12/22 06:59:52;;;;;;;2.47;1.42;;;;;;;;;;2071992;28;20034;-76
2023/12/22 07:01:11;;;;;;;1.90;1.33;;;;;;;;;;2069810;28;20036;-76
2023/12/22 07:02:30;;;;;;;3.35;1.83;;;;;;;;;;2070797;28;20030;-76
2023/12/22 07:03:49;;;;;;;2.20;1.70;;;;;;;;;;2077430;28;20470;-76
2023/12/22 07:05:11;;;;;;;1.60;1.25;;;;;;;;;;2072413;28;20472;-78
2023/12/22 07:06:31;;;;;;;3.15;1.58;;;;;;;;;;2067360;28;20029;-76
2023/12/22 07:07:50;;;;;;;1.67;1.48;;;;;;;;;;2078353;28;20025;-78
2023/12/22 07:09:12;;;;;;;2.35;1.75;;;;;;;;;;2079964;28;20395;-78
2023/12/22 07:10:31;;;;;;;1.60;1.30;;;;;;;;;;2074959;28;20439;-78
2023/12/22 07:11:52;;;;;;;1.10;1.00;;;;;;;;;;2077446;28;20071;-77
2023/12/22 07:13:11;;;;;;;1.35;1.08;;;;;;;;;;2080975;28;20467;-76
2023/12/22 07:14:33;;;;;;;1.17;1.08;;;;;;;;;;2077586;28;20117;-76
2023/12/22 07:15:52;;;;;;;1.67;1.15;;;;;;;;;;2077766;28;20105;-76
2023/12/22 07:17:11;;;;;;;2.47;1.20;;;;;;;;;;2080071;28;20052;-76
2023/12/22 07:18:30;;;;;;;2.42;1.50;;;;;;;;;;2082032;28;20382;-76
2023/12/22 07:19:51;;;;;;;2.25;1.60;;;;;;;;;;2082597;28;20033;-77
2023/12/22 07:21:15;;;;;;;2.90;1.20;;;;;;;;;;2081243;28;20026;-76
2023/12/22 07:22:34;;;;;;;2.90;1.45;;;;;;;;;;2080961;28;20471;-76
2023/12/22 07:23:53;;;;;;;5.82;1.35;;;;;;;;;;2081373;28;20041;-77
2023/12/22 07:25:12;;;;;;;3.15;1.27;;;;;;;;;;2082367;28;20025;-76
2023/12/22 07:26:31;;;;;;;2.95;1.42;;;;;;;;;;2081535;28;20573;-76
2023/12/22 07:27:51;;;;;;;3.42;1.42;;;;;;;;;;2081526;28;20037;-76
2023/12/22 07:29:10;;;;;;;3.90;1.15;;;;;;;;;;2081662;28;20041;-76
2023/12/22 07:30:29;;;;;;;2.30;1.67;;;;;;;;;;2076397;28;20030;-77
2023/12/22 07:31:48;;;;;;;1.98;1.50;;;;;;;;;;2078985;28;20033;-78
2023/12/22 07:33:07;;;;;;;2.08;1.30;;;;;;;;;;2082635;28;20499;-76
2023/12/22 07:34:26;;;;;;;2.17;1.15;;;;;;;;;;2081672;28;20037;-77
2023/12/22 07:35:45;;;;;;;3.35;1.65;;;;;;;;;;2079129;28;20022;-77
2023/12/22 07:37:08;;;;;;;1.83;1.30;;;;;;;;;;2076127;28;20348;-76
2023/12/22 07:38:28;;;;;;;3.10;1.40;;;;;;;;;;2079849;28;20037;-77
2023/12/22 07:39:47;;;;;;;2.95;1.48;;;;;;;;;;2082203;28;20037;-77
2023/12/22 07:41:06;;;;;;;3.75;1.38;;;;;;;;;;2076126;28;20029;-77
2023/12/22 07:42:27;;;;;;;2.80;1.35;;;;;;;;;;2078753;28;20121;-76
2023/12/22 07:43:46;;;;;;;1.65;1.55;;;;;;;;;;2076606;28;20130;-77
2023/12/22 07:45:05;;;;;;;2.85;1.02;;;;;;;;;;2073116;28;20518;-76
2023/12/22 07:46:24;;;;;;;1.85;1.30;;;;;;;;;;2077142;28;20029;-77
2023/12/22 07:47:43;;;;;;;2.35;1.33;;;;;;;;;;2081514;28;20053;-77
2023/12/22 07:49:02;;;;;;;2.67;1.40;;;;;;;;;;2076301;28;20022;-76
2023/12/22 07:50:21;;;;;;;3.00;1.58;;;;;;;;;;2078568;28;20029;-76
2023/12/22 07:51:40;;;;;;;1.55;1.35;;;;;;;;;;2081507;28;20029;-76
2023/12/22 07:52:59;;;;;;;3.85;1.70;;;;;;;;;;2080783;28;20033;-76
2023/12/22 07:54:18;;;;;;;2.88;1.52;;;;;;;;;;2080839;28;20483;-78
2023/12/22 07:55:38;;;;;;;4.38;1.50;;;;;;;;;;2081606;28;20021;-77